createdAt,value
2023-04-27T00:01:52.021Z,92.34
2023-04-27T00:04:22.890Z,91.66
2023-04-27T00:07:01.985Z,92.44
2023-04-27T00:09:28.348Z,94.30
2023-04-27T00:11:54.955Z,92.44
2023-04-27T00:14:21.522Z,94.71
2023-04-27T00:16:47.983Z,93.03
2023-04-27T00:19:15.360Z,94.83
2023-04-27T00:21:41.882Z,93.01
2023-04-27T00:24:08.434Z,94.58
2023-04-27T00:26:34.809Z,94.61
2023-04-27T00:29:01.146Z,96.39
2023-04-27T00:31:27.611Z,96.01
2023-04-27T00:33:54.070Z,96.99
2023-04-27T00:36:20.409Z,98.77
2023-04-27T00:38:46.749Z,100.00
2023-04-27T00:41:13.088Z,98.47
2023-04-27T00:43:44.179Z,96.07
2023-04-27T00:46:12.917Z,96.46
2023-04-27T00:48:39.803Z,97.04
2023-04-27T00:51:06.474Z,97.69
2023-04-27T00:53:33.911Z,96.58
2023-04-27T00:56:00.644Z,98.86
2023-04-27T00:58:27.060Z,96.16
2023-04-27T01:00:53.871Z,99.27
2023-04-27T01:03:20.430Z,96.86
2023-04-27T01:05:46.890Z,95.40
2023-04-27T01:08:13.314Z,96.09
2023-04-27T01:10:41.057Z,97.26
2023-04-27T01:13:07.450Z,94.64
2023-04-27T01:15:33.822Z,95.86
2023-04-27T01:18:01.767Z,93.24
2023-04-27T01:20:31.931Z,96.21
2023-04-27T01:22:59.207Z,93.76
2023-04-27T01:25:26.065Z,93.76
2023-04-27T01:27:53.554Z,94.02
2023-04-27T01:30:19.890Z,95.38
2023-04-27T01:32:46.258Z,95.55
2023-04-27T01:35:12.699Z,93.59
2023-04-27T01:37:39.111Z,95.65
2023-04-27T01:40:06.609Z,93.54
2023-04-27T01:42:33.034Z,94.04
2023-04-27T01:45:00.401Z,96.32
2023-04-27T01:47:27.494Z,94.13
2023-04-27T01:49:53.828Z,96.99
2023-04-27T01:52:20.254Z,98.77
2023-04-27T01:54:46.601Z,98.96
2023-04-27T01:57:14.202Z,99.59
2023-04-27T01:59:40.619Z,97.38
2023-04-27T02:02:06.988Z,97.83
2023-04-27T02:04:33.849Z,100.00
2023-04-27T02:07:00.271Z,99.85
2023-04-27T02:09:26.691Z,99.21
2023-04-27T02:11:53.028Z,99.45
2023-04-27T02:14:19.449Z,100.00
2023-04-27T02:16:45.881Z,100.00
2023-04-27T02:19:12.414Z,99.89
2023-04-27T02:21:40.520Z,100.00
2023-04-27T02:24:07.689Z,99.86
2023-04-27T02:26:34.184Z,100.00
2023-04-27T02:29:00.556Z,100.00
2023-04-27T02:31:27.307Z,100.00
2023-04-27T02:33:53.750Z,99.32
2023-04-27T02:36:20.100Z,100.00
2023-04-27T02:38:46.462Z,100.00
2023-04-27T02:41:12.809Z,100.00
2023-04-27T02:43:39.143Z,99.45
2023-04-27T02:46:05.952Z,99.10
2023-04-27T02:48:32.592Z,98.83
2023-04-27T02:50:58.994Z,100.00
2023-04-27T02:53:25.575Z,100.00
2023-04-27T02:55:51.930Z,100.00
2023-04-27T02:58:21.396Z,100.00
2023-04-27T03:00:48.947Z,100.00
2023-04-27T03:03:15.754Z,100.00
2023-04-27T03:05:42.217Z,100.00
2023-04-27T03:08:08.532Z,100.00
2023-04-27T03:10:34.897Z,100.00
2023-04-27T03:13:01.301Z,100.00
2023-04-27T03:15:27.635Z,100.00
2023-04-27T03:17:54.057Z,100.00
2023-04-27T03:20:21.976Z,100.00
2023-04-27T03:22:48.714Z,100.00
2023-04-27T03:25:15.425Z,100.00
2023-04-27T03:27:43.281Z,100.00
2023-04-27T03:30:11.184Z,100.00
2023-04-27T03:32:37.601Z,100.00
2023-04-27T03:35:04.641Z,100.00
2023-04-27T03:37:31.156Z,100.00
2023-04-27T03:39:57.501Z,100.00
2023-04-27T03:42:23.956Z,100.00
2023-04-27T03:44:50.350Z,100.00
2023-04-27T03:47:16.717Z,100.00
2023-04-27T03:49:43.241Z,100.00
2023-04-27T03:52:09.579Z,100.00
2023-04-27T03:54:36.294Z,100.00
2023-04-27T03:57:02.727Z,100.00
2023-04-27T03:59:29.951Z,100.00
2023-04-27T04:01:59.554Z,100.00
2023-04-27T04:04:27.732Z,100.00
2023-04-27T04:06:54.241Z,100.00
2023-04-27T04:09:22.014Z,100.00
2023-04-27T04:11:52.260Z,100.00
2023-04-27T04:14:18.668Z,100.00
2023-04-27T04:16:45.008Z,100.00
2023-04-27T04:19:11.806Z,100.00
2023-04-27T04:21:38.267Z,100.00
2023-04-27T04:24:04.842Z,100.00
2023-04-27T04:26:31.211Z,100.00
2023-04-27T04:28:57.536Z,100.00
2023-04-27T04:31:23.876Z,100.00
2023-04-27T04:33:50.475Z,100.00
2023-04-27T04:36:16.809Z,100.00
2023-04-27T04:38:43.203Z,100.00
2023-04-27T04:41:10.490Z,100.00
2023-04-27T04:43:36.819Z,100.00
2023-04-27T04:46:03.255Z,100.00
2023-04-27T04:48:29.694Z,100.00
2023-04-27T04:50:57.216Z,100.00
2023-04-27T04:53:23.610Z,99.57
2023-04-27T04:55:49.896Z,97.82
2023-04-27T04:58:16.229Z,98.55
2023-04-27T05:00:42.990Z,100.00
2023-04-27T05:03:09.472Z,100.00
2023-04-27T05:05:35.917Z,100.00
2023-04-27T05:08:02.551Z,100.00
2023-04-27T05:10:28.996Z,100.00
2023-04-27T05:12:55.399Z,100.00
2023-04-27T05:15:21.722Z,100.00
2023-04-27T05:17:48.103Z,100.00
2023-04-27T05:20:14.728Z,100.00
2023-04-27T05:22:41.308Z,100.00
2023-04-27T05:25:08.466Z,100.00
2023-04-27T05:27:34.740Z,100.00
2023-04-27T05:30:01.170Z,100.00
2023-04-27T05:32:27.499Z,100.00
2023-04-27T05:34:53.870Z,98.57
2023-04-27T05:37:20.384Z,99.22
2023-04-27T05:39:46.743Z,99.88
2023-04-27T05:42:13.231Z,100.00
2023-04-27T05:44:39.589Z,99.63
2023-04-27T05:47:05.981Z,100.00
2023-04-27T05:49:32.511Z,99.76
2023-04-27T05:51:59.081Z,96.55
2023-04-27T05:54:25.710Z,97.91
2023-04-27T05:56:52.096Z,96.08
2023-04-27T05:59:18.451Z,95.21
2023-04-27T06:01:44.880Z,93.96
2023-04-27T06:04:11.348Z,89.76
2023-04-27T06:06:38.184Z,91.19
2023-04-27T06:09:04.719Z,92.35
2023-04-27T06:11:31.052Z,90.25
2023-04-27T06:13:57.398Z,88.74
2023-04-27T06:16:24.241Z,87.32
2023-04-27T06:18:50.994Z,84.14
2023-04-27T06:21:17.628Z,84.29
2023-04-27T06:23:44.064Z,82.06
2023-04-27T06:26:10.384Z,81.38
2023-04-27T06:28:36.757Z,81.54
2023-04-27T06:31:03.203Z,84.28
2023-04-27T06:33:29.551Z,81.92
2023-04-27T06:35:55.977Z,81.69
2023-04-27T06:38:22.317Z,82.81
2023-04-27T06:40:53.045Z,78.86
2023-04-27T06:43:19.446Z,79.68
2023-04-27T06:45:46.051Z,77.78
2023-04-27T06:48:12.584Z,74.50
2023-04-27T06:50:38.998Z,75.22
2023-04-27T06:53:05.341Z,73.88
2023-04-27T06:55:31.771Z,71.38
2023-04-27T06:57:58.142Z,70.56
2023-04-27T07:00:24.689Z,70.04
2023-04-27T07:02:51.638Z,66.44
2023-04-27T07:05:19.321Z,68.58
2023-04-27T07:07:45.679Z,66.78
2023-04-27T07:10:12.104Z,67.65
2023-04-27T07:12:38.625Z,67.41
2023-04-27T07:15:06.668Z,67.36
2023-04-27T07:17:33.213Z,67.14
2023-04-27T07:20:01.253Z,64.34
2023-04-27T07:22:28.854Z,62.46
2023-04-27T07:24:55.209Z,62.78
2023-04-27T07:27:22.153Z,63.21
2023-04-27T07:29:48.637Z,62.27
2023-04-27T07:32:15.173Z,63.81
2023-04-27T07:34:52.622Z,61.01
2023-04-27T07:37:19.757Z,60.97
2023-04-27T07:39:46.698Z,61.02
2023-04-27T07:42:13.222Z,56.74
2023-04-27T07:44:40.599Z,58.52
2023-04-27T07:47:06.965Z,59.66
2023-04-27T07:49:34.844Z,58.10
2023-04-27T07:52:01.787Z,58.09
2023-04-27T07:54:28.170Z,58.23
2023-04-27T07:56:54.741Z,55.67
2023-04-27T07:59:21.209Z,56.98
2023-04-27T08:01:47.911Z,59.14
2023-04-27T08:04:16.011Z,55.61
2023-04-27T08:06:43.167Z,55.89
2023-04-27T08:09:09.990Z,55.59
2023-04-27T08:11:36.376Z,53.43
2023-04-27T08:14:02.795Z,53.86
2023-04-27T08:16:29.145Z,54.17
2023-04-27T08:18:55.641Z,54.56
2023-04-27T08:21:22.031Z,51.04
2023-04-27T08:23:48.443Z,53.04
2023-04-27T08:26:16.113Z,50.74
2023-04-27T08:28:42.442Z,52.04
2023-04-27T08:31:09.040Z,50.45
2023-04-27T08:33:35.379Z,50.02
2023-04-27T08:36:01.742Z,50.31
2023-04-27T08:38:28.040Z,49.06
2023-04-27T08:40:54.726Z,49.21
2023-04-27T08:43:21.104Z,48.75
2023-04-27T08:45:50.125Z,49.18
2023-04-27T08:48:16.545Z,49.10
2023-04-27T08:50:44.877Z,48.52
2023-04-27T08:53:23.776Z,47.57
2023-04-27T08:55:50.624Z,46.23
2023-04-27T08:58:17.159Z,47.62
2023-04-27T09:00:45.331Z,47.69
2023-04-27T09:03:25.135Z,46.02
2023-04-27T09:06:03.759Z,46.21
2023-04-27T09:08:51.002Z,48.28
2023-04-27T09:11:31.172Z,48.38
2023-04-27T09:13:59.539Z,46.10
2023-04-27T09:16:29.013Z,46.57
2023-04-27T09:18:56.997Z,45.94
2023-04-27T09:21:33.833Z,44.82
2023-04-27T09:24:13.754Z,45.15
2023-04-27T09:26:42.531Z,44.72
2023-04-27T09:29:09.161Z,43.70
2023-04-27T09:31:36.919Z,43.97
2023-04-27T09:34:03.856Z,43.39
2023-04-27T09:36:32.338Z,43.71
2023-04-27T09:39:02.142Z,43.27
2023-04-27T09:41:28.879Z,42.24
2023-04-27T09:43:57.698Z,41.04
2023-04-27T09:46:25.755Z,41.52
2023-04-27T09:48:52.833Z,39.81
2023-04-27T09:51:19.151Z,39.91
2023-04-27T09:53:51.382Z,41.21
2023-04-27T09:56:37.982Z,39.95
2023-04-27T09:59:16.911Z,39.41
2023-04-27T10:01:49.183Z,42.91
2023-04-27T10:04:49.485Z,39.99
2023-04-27T10:07:17.766Z,40.43
2023-04-27T10:09:49.295Z,41.09
2023-04-27T10:12:36.556Z,39.79
2023-04-27T10:15:14.374Z,40.38
2023-04-27T10:17:48.652Z,40.75
2023-04-27T10:20:15.379Z,39.87
2023-04-27T10:22:42.717Z,39.08
2023-04-27T10:25:23.245Z,39.36
2023-04-27T10:27:54.505Z,38.49
2023-04-27T10:30:23.303Z,38.55
2023-04-27T10:32:54.334Z,37.55
2023-04-27T10:35:22.330Z,40.51
2023-04-27T10:37:48.936Z,37.78
2023-04-27T10:40:19.188Z,39.09
2023-04-27T10:42:49.119Z,40.86
2023-04-27T10:45:28.448Z,37.51
2023-04-27T10:48:01.366Z,36.85
2023-04-27T10:50:28.447Z,38.91
2023-04-27T10:52:54.834Z,37.30
2023-04-27T10:55:23.729Z,37.76
2023-04-27T10:57:52.583Z,38.43
2023-04-27T11:00:26.951Z,40.17
2023-04-27T11:02:54.978Z,40.50
2023-04-27T11:05:29.548Z,38.80
2023-04-27T11:08:09.825Z,39.36
2023-04-27T11:10:39.507Z,37.15
2023-04-27T11:13:11.256Z,35.80
2023-04-27T11:15:49.412Z,38.95
2023-04-27T11:18:17.999Z,38.38
2023-04-27T11:20:53.339Z,37.67
2023-04-27T11:23:27.796Z,38.44
2023-04-27T11:25:55.781Z,38.08
2023-04-27T11:28:26.045Z,36.57
2023-04-27T11:30:59.349Z,36.77
2023-04-27T11:33:26.936Z,37.29
2023-04-27T11:35:54.202Z,37.12
2023-04-27T11:38:21.874Z,36.09
2023-04-27T11:41:00.703Z,39.72
2023-04-27T11:43:27.625Z,38.13
2023-04-27T11:45:55.586Z,37.48
2023-04-27T11:48:27.136Z,37.30
2023-04-27T11:50:53.479Z,37.45
2023-04-27T11:53:40.084Z,36.40
2023-04-27T11:56:07.924Z,38.01
2023-04-27T11:58:35.987Z,37.59
2023-04-27T12:01:04.203Z,38.81
2023-04-27T12:03:31.791Z,36.98
2023-04-27T12:06:11.623Z,38.94
2023-04-27T12:08:42.950Z,39.28
2023-04-27T12:11:09.390Z,36.68
2023-04-27T12:13:35.982Z,35.58
2023-04-27T12:16:02.387Z,36.36
2023-04-27T12:18:28.707Z,36.42
2023-04-27T12:20:55.142Z,38.40
2023-04-27T12:23:21.547Z,38.49
2023-04-27T12:25:48.356Z,38.75
2023-04-27T12:28:18.915Z,39.03
2023-04-27T12:30:45.333Z,37.00
2023-04-27T12:33:11.973Z,35.61
2023-04-27T12:35:38.546Z,35.74
2023-04-27T12:38:04.891Z,37.12
2023-04-27T12:40:31.323Z,37.14
2023-04-27T12:43:00.466Z,37.75
2023-04-27T12:45:27.466Z,35.65
2023-04-27T12:48:02.831Z,39.21
2023-04-27T12:50:32.016Z,37.95
2023-04-27T12:52:58.448Z,39.61
2023-04-27T12:55:33.215Z,38.36
2023-04-27T12:58:00.967Z,38.46
2023-04-27T13:00:27.495Z,38.30
2023-04-27T13:02:54.003Z,36.38
2023-04-27T13:05:22.110Z,37.32
2023-04-27T13:07:48.496Z,37.42
2023-04-27T13:10:15.036Z,37.52
2023-04-27T13:12:41.658Z,36.36
2023-04-27T13:15:08.942Z,36.01
2023-04-27T13:17:35.332Z,37.91
2023-04-27T13:20:01.937Z,37.26
2023-04-27T13:22:28.488Z,36.60
2023-04-27T13:24:55.072Z,38.09
2023-04-27T13:27:22.389Z,37.23
2023-04-27T13:29:51.012Z,36.92
2023-04-27T13:32:17.362Z,36.23
2023-04-27T13:34:43.818Z,35.68
2023-04-27T13:37:10.108Z,34.59
2023-04-27T13:39:37.573Z,37.19
2023-04-27T13:42:04.091Z,34.27
2023-04-27T13:44:31.629Z,35.88
2023-04-27T13:46:58.105Z,37.28
2023-04-27T13:49:24.441Z,38.10
2023-04-27T13:51:50.768Z,38.06
2023-04-27T13:54:17.209Z,39.01
2023-04-27T13:56:43.547Z,37.95
2023-04-27T13:59:10.533Z,37.83
2023-04-27T14:01:38.096Z,39.03
2023-04-27T14:04:04.657Z,37.64
2023-04-27T14:06:31.835Z,34.00
2023-04-27T14:08:58.270Z,35.30
2023-04-27T14:11:24.676Z,34.21
2023-04-27T14:13:51.275Z,36.51
2023-04-27T14:16:17.583Z,37.87
2023-04-27T14:18:43.960Z,38.20
2023-04-27T14:21:10.456Z,39.08
2023-04-27T14:23:36.867Z,39.51
2023-04-27T14:26:04.002Z,36.86
2023-04-27T14:28:30.331Z,35.04
2023-04-27T14:30:56.624Z,35.81
2023-04-27T14:33:22.948Z,38.02
2023-04-27T14:35:49.298Z,36.30
2023-04-27T14:38:15.679Z,39.17
2023-04-27T14:40:42.333Z,39.70
2023-04-27T14:43:08.671Z,41.25
2023-04-27T14:45:47.767Z,37.71
2023-04-27T14:48:17.813Z,36.11
2023-04-27T14:50:44.405Z,38.02
2023-04-27T14:53:10.934Z,39.61
2023-04-27T14:55:37.264Z,40.63
2023-04-27T14:58:03.601Z,39.67
2023-04-27T15:00:29.954Z,38.72
2023-04-27T15:02:56.362Z,38.49
2023-04-27T15:05:22.878Z,39.56
2023-04-27T15:07:49.285Z,41.59
2023-04-27T15:10:15.732Z,39.52
2023-04-27T15:12:42.298Z,40.10
2023-04-27T15:15:10.478Z,41.49
2023-04-27T15:17:37.057Z,39.34
2023-04-27T15:20:05.572Z,40.38
2023-04-27T15:22:32.080Z,39.50
2023-04-27T15:24:58.460Z,40.26
2023-04-27T15:27:26.106Z,41.07
2023-04-27T15:29:55.675Z,41.13
2023-04-27T15:32:24.409Z,42.12
2023-04-27T15:34:51.703Z,40.78
2023-04-27T15:37:18.045Z,40.66
2023-04-27T15:39:44.395Z,40.96
2023-04-27T15:42:10.812Z,41.65
2023-04-27T15:44:37.135Z,40.68
2023-04-27T15:47:03.753Z,40.90
2023-04-27T15:49:30.448Z,40.08
2023-04-27T15:51:56.843Z,41.86
2023-04-27T15:54:23.261Z,40.66
2023-04-27T15:56:49.625Z,40.76
2023-04-27T15:59:16.241Z,40.84
2023-04-27T16:01:42.989Z,39.42
2023-04-27T16:04:09.696Z,40.44
2023-04-27T16:06:36.682Z,41.56
2023-04-27T16:09:03.792Z,40.77
2023-04-27T16:11:31.271Z,41.34
2023-04-27T16:13:57.829Z,42.30
2023-04-27T16:16:24.329Z,40.91
2023-04-27T16:18:50.736Z,41.08
2023-04-27T16:21:17.111Z,42.00
2023-04-27T16:23:43.524Z,41.26
2023-04-27T16:26:09.890Z,41.73
2023-04-27T16:28:36.409Z,40.73
2023-04-27T16:31:02.977Z,40.92
2023-04-27T16:33:29.371Z,40.78
2023-04-27T16:35:57.177Z,42.92
2023-04-27T16:38:23.619Z,42.48
2023-04-27T16:40:50.053Z,41.23
2023-04-27T16:43:16.368Z,41.77
2023-04-27T16:45:42.704Z,41.50
2023-04-27T16:48:12.347Z,42.06
2023-04-27T16:50:39.051Z,43.49
2023-04-27T16:53:10.791Z,42.10
2023-04-27T16:55:37.339Z,43.14
2023-04-27T16:58:03.750Z,42.41
2023-04-27T17:00:30.360Z,43.55
2023-04-27T17:02:56.954Z,42.34
2023-04-27T17:05:23.448Z,42.60
2023-04-27T17:07:49.814Z,43.33
2023-04-27T17:10:16.848Z,44.52
2023-04-27T17:12:43.233Z,43.51
2023-04-27T17:15:10.463Z,43.99
2023-04-27T17:17:36.868Z,44.51
2023-04-27T17:20:04.283Z,43.84
2023-04-27T17:22:30.911Z,43.77
2023-04-27T17:24:57.439Z,44.82
2023-04-27T17:27:23.827Z,48.46
2023-04-27T17:29:51.829Z,46.34
2023-04-27T17:32:18.219Z,46.49
2023-04-27T17:34:45.165Z,46.36
2023-04-27T17:37:11.553Z,46.09
2023-04-27T17:39:37.872Z,46.47
2023-04-27T17:42:04.330Z,47.48
2023-04-27T17:44:30.683Z,47.18
2023-04-27T17:46:57.134Z,47.38
2023-04-27T17:49:23.598Z,47.71
2023-04-27T17:51:49.977Z,48.92
2023-04-27T17:54:16.408Z,49.90
2023-04-27T17:56:42.823Z,49.82
2023-04-27T17:59:09.346Z,50.07
2023-04-27T18:01:35.820Z,51.54
2023-04-27T18:04:04.606Z,49.70
2023-04-27T18:06:31.926Z,50.16
2023-04-27T18:08:58.293Z,52.06
2023-04-27T18:11:24.714Z,50.39
2023-04-27T18:13:51.226Z,54.03
2023-04-27T18:16:17.585Z,50.75
2023-04-27T18:18:43.996Z,51.62
2023-04-27T18:21:10.499Z,53.56
2023-04-27T18:23:37.862Z,53.87
2023-04-27T18:26:04.481Z,53.81
2023-04-27T18:28:30.848Z,53.72
2023-04-27T18:30:57.140Z,52.79
2023-04-27T18:33:23.533Z,53.78
2023-04-27T18:35:50.638Z,55.96
2023-04-27T18:38:17.017Z,55.91
2023-04-27T18:40:44.537Z,53.96
2023-04-27T18:43:11.191Z,55.13
2023-04-27T18:45:37.585Z,56.83
2023-04-27T18:48:04.089Z,56.62
2023-04-27T18:50:30.417Z,58.49
2023-04-27T18:52:58.849Z,60.92
2023-04-27T18:55:25.257Z,59.31
2023-04-27T18:57:51.672Z,57.56
2023-04-27T19:00:18.159Z,56.93
2023-04-27T19:02:44.572Z,56.70
2023-04-27T19:05:13.474Z,58.74
2023-04-27T19:07:40.223Z,59.79
2023-04-27T19:10:07.162Z,60.00
2023-04-27T19:12:33.564Z,59.71
2023-04-27T19:14:59.850Z,60.29
2023-04-27T19:17:26.747Z,58.02
2023-04-27T19:19:53.350Z,61.41
2023-04-27T19:22:19.703Z,62.88
2023-04-27T19:24:46.019Z,62.71
2023-04-27T19:27:12.553Z,67.14
2023-04-27T19:29:53.805Z,67.64
2023-04-27T19:32:21.722Z,65.75
2023-04-27T19:34:48.502Z,64.53
2023-04-27T19:37:14.860Z,64.21
2023-04-27T19:39:41.384Z,65.20
2023-04-27T19:42:07.821Z,64.29
2023-04-27T19:44:34.200Z,63.57
2023-04-27T19:47:00.659Z,64.08
2023-04-27T19:49:30.747Z,63.36
2023-04-27T19:51:57.038Z,64.26
2023-04-27T19:54:23.418Z,63.62
2023-04-27T19:56:49.830Z,63.77
2023-04-27T19:59:16.218Z,64.06
2023-04-27T20:01:42.508Z,64.69
2023-04-27T20:04:09.010Z,65.97
2023-04-27T20:06:35.669Z,64.56
2023-04-27T20:09:02.119Z,67.23
2023-04-27T20:11:28.406Z,64.24
2023-04-27T20:13:54.706Z,65.04
2023-04-27T20:16:21.508Z,65.20
2023-04-27T20:18:49.527Z,65.35
2023-04-27T20:21:16.300Z,65.21
2023-04-27T20:23:42.770Z,65.16
2023-04-27T20:26:09.148Z,65.29
2023-04-27T20:28:35.517Z,65.22
2023-04-27T20:31:01.844Z,65.81
2023-04-27T20:33:28.141Z,65.66
2023-04-27T20:36:03.704Z,63.97
2023-04-27T20:38:32.987Z,64.18
2023-04-27T20:41:00.785Z,64.82
2023-04-27T20:43:27.220Z,64.19
2023-04-27T20:45:53.586Z,64.12
2023-04-27T20:48:19.976Z,64.79
2023-04-27T20:50:46.277Z,65.57
2023-04-27T20:53:12.625Z,66.43
2023-04-27T20:55:39.280Z,67.42
2023-04-27T20:58:05.869Z,70.00
2023-04-27T21:00:32.209Z,71.15
2023-04-27T21:02:58.730Z,75.74
2023-04-27T21:05:25.715Z,73.55
2023-04-27T21:07:52.067Z,74.11
2023-04-27T21:10:18.516Z,73.46
2023-04-27T21:12:44.875Z,71.99
2023-04-27T21:15:11.910Z,72.84
2023-04-27T21:17:38.245Z,75.77
2023-04-27T21:20:04.976Z,75.37
2023-04-27T21:22:31.303Z,74.55
2023-04-27T21:24:57.587Z,73.97
2023-04-27T21:27:24.962Z,77.30
2023-04-27T21:29:51.280Z,74.94
2023-04-27T21:32:17.664Z,71.60
2023-04-27T21:34:43.998Z,69.87
2023-04-27T21:37:10.368Z,69.69
2023-04-27T21:39:36.799Z,72.39
2023-04-27T21:42:03.305Z,73.15
2023-04-27T21:44:29.692Z,71.71
2023-04-27T21:46:55.997Z,73.48
2023-04-27T21:49:22.448Z,74.85
2023-04-27T21:51:48.734Z,70.96
2023-04-27T21:54:15.241Z,70.85
2023-04-27T21:56:41.764Z,71.71
2023-04-27T21:59:08.350Z,72.27
2023-04-27T22:01:34.755Z,72.25
2023-04-27T22:04:02.043Z,73.35
2023-04-27T22:06:28.678Z,72.69
2023-04-27T22:08:55.095Z,72.03
2023-04-27T22:11:21.503Z,76.62
2023-04-27T22:13:47.847Z,73.21
2023-04-27T22:16:14.284Z,74.72
2023-04-27T22:18:40.650Z,74.01
2023-04-27T22:21:08.194Z,74.92
2023-04-27T22:23:34.523Z,74.87
2023-04-27T22:26:00.894Z,76.00
2023-04-27T22:28:27.229Z,76.86
2023-04-27T22:30:55.329Z,76.36
2023-04-27T22:33:21.690Z,77.10
2023-04-27T22:35:48.230Z,75.84
2023-04-27T22:38:14.648Z,75.13
2023-04-27T22:40:41.195Z,75.02
2023-04-27T22:43:07.526Z,77.02
2023-04-27T22:45:34.509Z,78.08
2023-04-27T22:48:02.049Z,76.87
2023-04-27T22:50:28.998Z,77.09
2023-04-27T22:52:55.322Z,79.24
2023-04-27T22:55:22.223Z,78.93
2023-04-27T22:57:49.921Z,78.64
2023-04-27T23:00:16.330Z,79.07
2023-04-27T23:02:42.913Z,79.25
2023-04-27T23:05:10.785Z,80.64
2023-04-27T23:07:37.416Z,81.20
2023-04-27T23:10:06.088Z,82.00
2023-04-27T23:12:33.054Z,84.67
2023-04-27T23:14:59.549Z,82.15
2023-04-27T23:17:32.071Z,81.94
2023-04-27T23:19:59.622Z,81.13
2023-04-27T23:22:26.770Z,81.03
2023-04-27T23:24:53.893Z,81.31
2023-04-27T23:27:21.286Z,80.10
2023-04-27T23:29:47.663Z,78.80
2023-04-27T23:32:14.023Z,79.48
2023-04-27T23:34:40.281Z,80.21
2023-04-27T23:37:07.601Z,80.89
2023-04-27T23:39:33.916Z,78.31
2023-04-27T23:42:00.566Z,77.27
2023-04-27T23:44:27.387Z,78.22
2023-04-27T23:46:54.055Z,76.61
2023-04-27T23:49:20.365Z,79.29
2023-04-27T23:51:46.961Z,79.96
2023-04-27T23:54:13.613Z,78.62
2023-04-27T23:56:40.083Z,77.45
2023-04-27T23:59:06.437Z,76.75
